Terminal Aerodrome Forecast
Issued by NWS

Home | Current Version | Previous Version | Text Only | Print | Product List | Glossary On
Versions: 1 2 3 4 5 6 7 8 9 10 11 12
000
FTUS46 KLOX 010500 RRA
TAFBUR
TAF
KBUR 010542Z 0106/0206 11006KT P6SM SKC
     FM010700 VRB03KT P6SM SKC
     FM011800 14005KT P6SM SKC
     FM012100 18008KT P6SM SKC
     FM020300 13006KT P6SM SKC=

USA.gov is the U.S. government's official web portal to all federal, state and local government web resources and services.